Aérodrome :
LOGIN :

S'inscrire | Disclaimer

   EN    FR    IT 

 










Légende :    VFR   VFR Marginal   IFR   IFR Intensif   IFR Très Intensif
Visi : 
Plafond : 
>= 8 km
>= 3000ft
5 à 8 km
1000 à 3000 ft
1500m à 5 km
500 à 1000 ft
800 à 1500m
200 à 500 ft
< 800m
< 200 ft
Symboles :   Orages  Brouillard  Fortes neiges  Fortes précipitations  Vent > 20 kt
SIGMETs :   Divers  Orages  Givrage  Turbulence  Onde Orograph.  Cendres Volcan.






- Altitude de l'aérodrome : 233 ft
- Code IATA : REU


LERS - Reus Tarragona

DERNIER METAR :
  • 061830Z 00000KT CAVOK 09/09 Q1023

METARs EXPIRÉS :
  • 061800Z 00000KT CAVOK 09/09 Q1023
  • 061730Z 00000KT 9999 FEW035 10/10 Q1022
  • 061700Z 00000KT 9999 FEW035 11/10 Q1022
  • 061630Z 20003KT 9999 FEW032 13/09 Q1022
  • 061600Z 20003KT 170V240 9999 FEW032 14/10 Q1022
  • 061530Z 21003KT 9999 FEW032 15/10 Q1022

TAF TAF LERS
Valide du 06 à 15h jusqu'au 07 à 15h UTC


061400Z 0615/0715 VRB05KT 9999 SCT040 TX16/0713Z TN05/0706Z



MET'MAP, la Météo Aéronautique d'un coup d'oeil ! - Copyright ORBIFLY Décembre 2007 - Disclaimer

ORBIFLY MET'MAP TEAM :

Programmation & Développement : Alexandra Zaïnal
Sur une idée originale de : Baudouin d'Aumeries
Assistance à la programmation : Marc-Olivier Méhu
Soutien technique & logistique : Manuel Goepfert

Contact : metmap@orbifly.com




SOURCES & CREDITS :

   NOAA